EZY217U EGGP-EGAC
Flight info
| Callsign | EZY217U |
|---|---|
| Flight time | 0h 34m |
| Altitude | 22000 |
| Route | WAL M146 ERDUV Z198 MASOP M148 MAGEE |
| Aircraft | A319/M-SDE3FGHIRWY/LB1 |
Departure
| Time | 2026-04-21 18:09 |
|---|---|
| Airport | Liverpool John Lennon Airport (EGGP) |
Arrival
| Time | 2026-04-21 18:43 |
|---|---|
| Airport | George Best Belfast City Airport (EGAC) |
| Time | Latitude | Longitude | Altitude | Speed | Heading |
|---|---|---|---|---|---|
| 2026-04-21 17:41 | 53.33673 | -2.85202 | 90 ft | 0 kts | 265° |
| 2026-04-21 17:55 | 53.33674 | -2.85196 | 86 ft | 2 kts | 265° |
| 2026-04-21 17:55 | 53.33675 | -2.85165 | 88 ft | 3 kts | 265° |
| 2026-04-21 17:56 | 53.33677 | -2.85131 | 86 ft | 3 kts | 267° |
| 2026-04-21 17:56 | 53.33678 | -2.85098 | 86 ft | 3 kts | 263° |
| 2026-04-21 17:56 | 53.33682 | -2.85067 | 88 ft | 3 kts | 232° |
| 2026-04-21 17:56 | 53.33686 | -2.85058 | 89 ft | 1 kts | 220° |
| 2026-04-21 17:57 | 53.33672 | -2.85070 | 87 ft | 3 kts | 200° |
| 2026-04-21 17:57 | 53.33653 | -2.85073 | 86 ft | 3 kts | 181° |
| 2026-04-21 17:57 | 53.33636 | -2.85071 | 85 ft | 1 kts | 175° |
| 2026-04-21 17:57 | 53.33634 | -2.85071 | 85 ft | 0 kts | 175° |
| 2026-04-21 17:59 | 53.33633 | -2.85071 | 85 ft | 1 kts | 175° |
| 2026-04-21 18:00 | 53.33622 | -2.85070 | 89 ft | 3 kts | 175° |
| 2026-04-21 18:00 | 53.33586 | -2.85065 | 85 ft | 6 kts | 176° |
| 2026-04-21 18:00 | 53.33539 | -2.85066 | 85 ft | 8 kts | 194° |
| 2026-04-21 18:00 | 53.33521 | -2.85153 | 85 ft | 10 kts | 266° |
| 2026-04-21 18:01 | 53.33515 | -2.85274 | 84 ft | 11 kts | 265° |
| 2026-04-21 18:01 | 53.33508 | -2.85415 | 87 ft | 13 kts | 265° |
| 2026-04-21 18:01 | 53.33502 | -2.85572 | 84 ft | 14 kts | 266° |
| 2026-04-21 18:01 | 53.33495 | -2.85740 | 89 ft | 15 kts | 265° |
| 2026-04-21 18:02 | 53.33486 | -2.85919 | 85 ft | 16 kts | 265° |
| 2026-04-21 18:02 | 53.33478 | -2.86107 | 85 ft | 17 kts | 265° |
| 2026-04-21 18:02 | 53.33469 | -2.86304 | 85 ft | 17 kts | 266° |
| 2026-04-21 18:02 | 53.33459 | -2.86514 | 82 ft | 20 kts | 266° |
| 2026-04-21 18:03 | 53.33452 | -2.86637 | 72 ft | 8 kts | 261° |
| 2026-04-21 18:03 | 53.33421 | -2.86709 | 77 ft | 1 kts | 217° |
| 2026-04-21 18:03 | 53.33416 | -2.86714 | 77 ft | 2 kts | 212° |
| 2026-04-21 18:03 | 53.33402 | -2.86725 | 77 ft | 1 kts | 203° |
| 2026-04-21 18:04 | 53.33402 | -2.86726 | 77 ft | 0 kts | 202° |
| 2026-04-21 18:06 | 53.33400 | -2.86727 | 77 ft | 1 kts | 202° |
| 2026-04-21 18:07 | 53.33381 | -2.86732 | 74 ft | 5 kts | 185° |
| 2026-04-21 18:07 | 53.33347 | -2.86722 | 71 ft | 5 kts | 161° |
| 2026-04-21 18:07 | 53.33314 | -2.86684 | 77 ft | 7 kts | 139° |
| 2026-04-21 18:07 | 53.33287 | -2.86611 | 72 ft | 9 kts | 96° |
| 2026-04-21 18:08 | 53.33292 | -2.86533 | 74 ft | 2 kts | 86° |
| 2026-04-21 18:08 | 53.33293 | -2.86517 | 75 ft | 3 kts | 86° |
| 2026-04-21 18:08 | 53.33305 | -2.86223 | 72 ft | 64 kts | 85° |
| 2026-04-21 18:08 | 53.33360 | -2.85056 | 93 ft | 133 kts | 86° |
| 2026-04-21 18:09 | 53.33437 | -2.83521 | 830 ft | 128 kts | 85° |
| 2026-04-21 18:09 | 53.33524 | -2.82030 | 1557 ft | 136 kts | 84° |
| 2026-04-21 18:09 | 53.33593 | -2.80916 | 1839 ft | 153 kts | 84° |
| 2026-04-21 18:09 | 53.34020 | -2.78490 | 2667 ft | 173 kts | 59° |
| 2026-04-21 18:10 | 53.34997 | -2.77356 | 3554 ft | 184 kts | 24° |
| 2026-04-21 18:10 | 53.36383 | -2.77468 | 3943 ft | 221 kts | 345° |
| 2026-04-21 18:10 | 53.37564 | -2.79275 | 3988 ft | 253 kts | 300° |
| 2026-04-21 18:10 | 53.38053 | -2.82320 | 4024 ft | 283 kts | 275° |
| 2026-04-21 18:11 | 53.38189 | -2.85641 | 4013 ft | 288 kts | 274° |
| 2026-04-21 18:11 | 53.38312 | -2.88993 | 4009 ft | 288 kts | 273° |
| 2026-04-21 18:11 | 53.38433 | -2.92347 | 4011 ft | 288 kts | 273° |
| 2026-04-21 18:11 | 53.38550 | -2.95696 | 4012 ft | 288 kts | 273° |
| 2026-04-21 18:12 | 53.38666 | -2.99052 | 4016 ft | 289 kts | 273° |
| 2026-04-21 18:12 | 53.38787 | -3.02405 | 4010 ft | 289 kts | 274° |
| 2026-04-21 18:12 | 53.38911 | -3.05770 | 4012 ft | 289 kts | 274° |
| 2026-04-21 18:12 | 53.39131 | -3.09118 | 4017 ft | 289 kts | 282° |
| 2026-04-21 18:13 | 53.39705 | -3.12329 | 4008 ft | 288 kts | 294° |
| 2026-04-21 18:13 | 53.40625 | -3.15298 | 4042 ft | 289 kts | 306° |
| 2026-04-21 18:13 | 53.41906 | -3.17969 | 4918 ft | 293 kts | 318° |
| 2026-04-21 18:13 | 53.43320 | -3.20348 | 6184 ft | 292 kts | 318° |
| 2026-04-21 18:14 | 53.46180 | -3.25253 | 8369 ft | 297 kts | 316° |
| 2026-04-21 18:14 | 53.47628 | -3.27753 | 9375 ft | 302 kts | 316° |
| 2026-04-21 18:14 | 53.49110 | -3.30306 | 10392 ft | 306 kts | 316° |
| 2026-04-21 18:15 | 53.50640 | -3.32935 | 10937 ft | 327 kts | 316° |
| 2026-04-21 18:15 | 53.52294 | -3.35769 | 11304 ft | 352 kts | 316° |
| 2026-04-21 18:15 | 53.54049 | -3.38781 | 11882 ft | 366 kts | 316° |
| 2026-04-21 18:15 | 53.55837 | -3.41858 | 12774 ft | 369 kts | 315° |
| 2026-04-21 18:16 | 53.57030 | -3.43911 | 13367 ft | 371 kts | 315° |
| 2026-04-21 18:16 | 53.58680 | -3.47261 | 14284 ft | 374 kts | 306° |
| 2026-04-21 18:16 | 53.60203 | -3.50889 | 14939 ft | 382 kts | 306° |
| 2026-04-21 18:16 | 53.61746 | -3.54570 | 15668 ft | 386 kts | 306° |
| 2026-04-21 18:17 | 53.63302 | -3.58289 | 16436 ft | 390 kts | 306° |
| 2026-04-21 18:17 | 53.64886 | -3.62065 | 17159 ft | 395 kts | 306° |
| 2026-04-21 18:17 | 53.66470 | -3.65835 | 18113 ft | 393 kts | 305° |
| 2026-04-21 18:17 | 53.68048 | -3.69607 | 18997 ft | 392 kts | 305° |
| 2026-04-21 18:18 | 53.69620 | -3.73367 | 19703 ft | 394 kts | 305° |
| 2026-04-21 18:18 | 53.71202 | -3.77155 | 20447 ft | 394 kts | 305° |
| 2026-04-21 18:18 | 53.72774 | -3.80927 | 21302 ft | 391 kts | 305° |
| 2026-04-21 18:18 | 53.74335 | -3.84679 | 22040 ft | 388 kts | 305° |
| 2026-04-21 18:19 | 53.75879 | -3.88391 | 22301 ft | 385 kts | 305° |
| 2026-04-21 18:19 | 53.77406 | -3.92070 | 22371 ft | 392 kts | 305° |
| 2026-04-21 18:19 | 53.78977 | -3.95865 | 22381 ft | 395 kts | 305° |
| 2026-04-21 18:19 | 53.80558 | -3.99690 | 22375 ft | 398 kts | 305° |
| 2026-04-21 18:20 | 53.82143 | -4.03536 | 22375 ft | 399 kts | 305° |
| 2026-04-21 18:20 | 53.83726 | -4.07383 | 22375 ft | 397 kts | 305° |
| 2026-04-21 18:20 | 53.85307 | -4.11202 | 22374 ft | 395 kts | 307° |
| 2026-04-21 18:20 | 53.87138 | -4.14666 | 22375 ft | 395 kts | 317° |
| 2026-04-21 18:21 | 53.89321 | -4.17518 | 22381 ft | 397 kts | 327° |
| 2026-04-21 18:21 | 53.91781 | -4.19646 | 22384 ft | 397 kts | 336° |
| 2026-04-21 18:21 | 53.94356 | -4.21332 | 22368 ft | 398 kts | 337° |
| 2026-04-21 18:21 | 53.96956 | -4.23034 | 22377 ft | 401 kts | 337° |
| 2026-04-21 18:22 | 53.99558 | -4.24749 | 22384 ft | 402 kts | 337° |
| 2026-04-21 18:22 | 54.02156 | -4.26471 | 22384 ft | 401 kts | 337° |
| 2026-04-21 18:22 | 54.04754 | -4.28200 | 22382 ft | 401 kts | 337° |
| 2026-04-21 18:22 | 54.07328 | -4.29914 | 22385 ft | 402 kts | 337° |
| 2026-04-21 18:23 | 54.09935 | -4.31651 | 22383 ft | 402 kts | 337° |
| 2026-04-21 18:23 | 54.12504 | -4.33464 | 22383 ft | 399 kts | 333° |
| 2026-04-21 18:23 | 54.14870 | -4.35942 | 22389 ft | 398 kts | 322° |
| 2026-04-21 18:23 | 54.16932 | -4.39117 | 22398 ft | 400 kts | 312° |
| 2026-04-21 18:24 | 54.18644 | -4.42842 | 22395 ft | 400 kts | 304° |
| 2026-04-21 18:24 | 54.20241 | -4.46752 | 22374 ft | 401 kts | 304° |
| 2026-04-21 18:24 | 54.21845 | -4.50668 | 22366 ft | 402 kts | 305° |
| 2026-04-21 18:24 | 54.23457 | -4.54598 | 22363 ft | 403 kts | 305° |
| 2026-04-21 18:25 | 54.25069 | -4.58521 | 22362 ft | 404 kts | 305° |
| 2026-04-21 18:25 | 54.26687 | -4.62459 | 22382 ft | 403 kts | 305° |
| 2026-04-21 18:25 | 54.28269 | -4.66332 | 22401 ft | 402 kts | 305° |
| 2026-04-21 18:25 | 54.29864 | -4.70254 | 22270 ft | 400 kts | 304° |
| 2026-04-21 18:26 | 54.31442 | -4.74145 | 21920 ft | 396 kts | 304° |
| 2026-04-21 18:26 | 54.33020 | -4.78044 | 21574 ft | 399 kts | 304° |
| 2026-04-21 18:26 | 54.34608 | -4.81972 | 21235 ft | 400 kts | 305° |
| 2026-04-21 18:26 | 54.36189 | -4.85884 | 20914 ft | 399 kts | 304° |
| 2026-04-21 18:27 | 54.37771 | -4.89799 | 20581 ft | 400 kts | 304° |
| 2026-04-21 18:27 | 54.39354 | -4.93725 | 20259 ft | 401 kts | 304° |
| 2026-04-21 18:27 | 54.40949 | -4.97698 | 19923 ft | 408 kts | 304° |
| 2026-04-21 18:27 | 54.42565 | -5.01740 | 19608 ft | 411 kts | 304° |
| 2026-04-21 18:28 | 54.44182 | -5.05785 | 19283 ft | 413 kts | 304° |
| 2026-04-21 18:28 | 54.45813 | -5.09845 | 18981 ft | 412 kts | 304° |
| 2026-04-21 18:28 | 54.47450 | -5.13894 | 18663 ft | 412 kts | 304° |
| 2026-04-21 18:28 | 54.49095 | -5.17942 | 18225 ft | 413 kts | 305° |
| 2026-04-21 18:29 | 54.50768 | -5.21946 | 17539 ft | 412 kts | 301° |
| 2026-04-21 18:29 | 54.51857 | -5.26461 | 16877 ft | 409 kts | 282° |
| 2026-04-21 18:29 | 54.52125 | -5.31303 | 16229 ft | 405 kts | 269° |
| 2026-04-21 18:29 | 54.52163 | -5.36143 | 15593 ft | 403 kts | 269° |
| 2026-04-21 18:30 | 54.52187 | -5.40960 | 15039 ft | 400 kts | 269° |
| 2026-04-21 18:30 | 54.51882 | -5.45562 | 14647 ft | 387 kts | 252° |
| 2026-04-21 18:30 | 54.51082 | -5.49960 | 14260 ft | 383 kts | 249° |
| 2026-04-21 18:30 | 54.50251 | -5.54297 | 13830 ft | 380 kts | 249° |
| 2026-04-21 18:31 | 54.49416 | -5.58588 | 13400 ft | 377 kts | 249° |
| 2026-04-21 18:31 | 54.48588 | -5.62850 | 12971 ft | 375 kts | 248° |
| 2026-04-21 18:31 | 54.47766 | -5.67106 | 12558 ft | 374 kts | 249° |
| 2026-04-21 18:31 | 54.46946 | -5.71341 | 12137 ft | 372 kts | 249° |
| 2026-04-21 18:32 | 54.46125 | -5.75539 | 11719 ft | 369 kts | 249° |
| 2026-04-21 18:32 | 54.45308 | -5.79723 | 11321 ft | 368 kts | 249° |
| 2026-04-21 18:32 | 54.44500 | -5.83888 | 10919 ft | 367 kts | 249° |
| 2026-04-21 18:32 | 54.43697 | -5.88011 | 10535 ft | 359 kts | 249° |
| 2026-04-21 18:33 | 54.42922 | -5.92000 | 10320 ft | 344 kts | 249° |
| 2026-04-21 18:33 | 54.42162 | -5.95905 | 9567 ft | 345 kts | 249° |
| 2026-04-21 18:33 | 54.41412 | -5.99788 | 8909 ft | 339 kts | 249° |
| 2026-04-21 18:33 | 54.40495 | -6.03442 | 8266 ft | 328 kts | 232° |
| 2026-04-21 18:34 | 54.38996 | -6.06281 | 7629 ft | 318 kts | 218° |
| 2026-04-21 18:34 | 54.37382 | -6.08840 | 7004 ft | 313 kts | 218° |
| 2026-04-21 18:34 | 54.35836 | -6.11281 | 6719 ft | 294 kts | 218° |
| 2026-04-21 18:34 | 54.34461 | -6.13697 | 6591 ft | 276 kts | 231° |
| 2026-04-21 18:35 | 54.33912 | -6.15661 | 6512 ft | 267 kts | 252° |
| 2026-04-21 18:35 | 54.34044 | -6.19662 | 6198 ft | 252 kts | 297° |
| 2026-04-21 18:35 | 54.35202 | -6.21762 | 5777 ft | 239 kts | 340° |
| 2026-04-21 18:35 | 54.36751 | -6.22102 | 5329 ft | 218 kts | 24° |
| 2026-04-21 18:36 | 54.37884 | -6.20696 | 4862 ft | 196 kts | 66° |
| 2026-04-21 18:36 | 54.38427 | -6.18579 | 4379 ft | 195 kts | 71° |
| 2026-04-21 18:36 | 54.39005 | -6.16480 | 3957 ft | 194 kts | 70° |
| 2026-04-21 18:36 | 54.39630 | -6.14433 | 3547 ft | 195 kts | 60° |
| 2026-04-21 18:37 | 54.40559 | -6.12711 | 3171 ft | 198 kts | 47° |
| 2026-04-21 18:37 | 54.41643 | -6.11266 | 3013 ft | 197 kts | 43° |
| 2026-04-21 18:37 | 54.42774 | -6.09890 | 3012 ft | 201 kts | 42° |
| 2026-04-21 18:37 | 54.43924 | -6.08522 | 3013 ft | 201 kts | 41° |
| 2026-04-21 18:38 | 54.45074 | -6.07161 | 3011 ft | 201 kts | 42° |
| 2026-04-21 18:38 | 54.46223 | -6.05801 | 3010 ft | 200 kts | 42° |
| 2026-04-21 18:38 | 54.47337 | -6.04486 | 3006 ft | 188 kts | 42° |
| 2026-04-21 18:38 | 54.48381 | -6.03251 | 3004 ft | 177 kts | 42° |
| 2026-04-21 18:39 | 54.49381 | -6.02063 | 3046 ft | 173 kts | 43° |
| 2026-04-21 18:39 | 54.50356 | -6.00903 | 3017 ft | 171 kts | 42° |
| 2026-04-21 18:39 | 54.51329 | -5.99746 | 2741 ft | 172 kts | 43° |
| 2026-04-21 18:39 | 54.52330 | -5.98553 | 2304 ft | 175 kts | 42° |
| 2026-04-21 18:40 | 54.53300 | -5.97406 | 2006 ft | 163 kts | 43° |
| 2026-04-21 18:40 | 54.54205 | -5.96331 | 1767 ft | 153 kts | 41° |
| 2026-04-21 18:40 | 54.54760 | -5.95674 | 1636 ft | 138 kts | 43° |
| 2026-04-21 18:40 | 54.55741 | -5.94507 | 1379 ft | 122 kts | 43° |
| 2026-04-21 18:41 | 54.56428 | -5.93685 | 1213 ft | 118 kts | 43° |
| 2026-04-21 18:41 | 54.57100 | -5.92875 | 1036 ft | 116 kts | 41° |
| 2026-04-21 18:41 | 54.57764 | -5.92085 | 858 ft | 117 kts | 41° |
| 2026-04-21 18:41 | 54.58434 | -5.91284 | 732 ft | 118 kts | 40° |
| 2026-04-21 18:42 | 54.59119 | -5.90460 | 546 ft | 124 kts | 40° |
| 2026-04-21 18:42 | 54.59831 | -5.89605 | 371 ft | 126 kts | 40° |
| 2026-04-21 18:42 | 54.60557 | -5.88748 | 224 ft | 125 kts | 40° |
| 2026-04-21 18:42 | 54.61252 | -5.87921 | 45 ft | 121 kts | 40° |
| 2026-04-21 18:43 | 54.61849 | -5.87197 | 22 ft | 85 kts | 33° |
| 2026-04-21 18:43 | 54.62109 | -5.86893 | 16 ft | 23 kts | 34° |
| 2026-04-21 18:43 | 54.62215 | -5.86768 | 20 ft | 13 kts | 34° |
| 2026-04-21 18:43 | 54.62278 | -5.86692 | 20 ft | 11 kts | 35° |
| 2026-04-21 18:44 | 54.62353 | -5.86601 | 22 ft | 14 kts | 35° |
| 2026-04-21 18:44 | 54.62413 | -5.86487 | 24 ft | 14 kts | 77° |
| 2026-04-21 18:44 | 54.62457 | -5.86476 | 20 ft | 11 kts | 235° |
| 2026-04-21 18:44 | 54.62372 | -5.86578 | 22 ft | 20 kts | 214° |
| 2026-04-21 18:45 | 54.62251 | -5.86725 | 21 ft | 22 kts | 215° |
| 2026-04-21 18:45 | 54.62103 | -5.86902 | 16 ft | 32 kts | 215° |
| 2026-04-21 18:45 | 54.61915 | -5.87124 | 18 ft | 28 kts | 214° |
| 2026-04-21 18:45 | 54.61813 | -5.87120 | 17 ft | 17 kts | 126° |
| 2026-04-21 18:46 | 54.61735 | -5.86991 | 21 ft | 16 kts | 181° |
| 2026-04-21 18:46 | 54.61628 | -5.87108 | 21 ft | 19 kts | 216° |
| 2026-04-21 18:46 | 54.61533 | -5.87222 | 21 ft | 6 kts | 213° |
| 2026-04-21 18:46 | 54.61496 | -5.87216 | 21 ft | 6 kts | 154° |
| 2026-04-21 18:47 | 54.61466 | -5.87191 | 23 ft | 2 kts | 155° |
| 2026-04-21 18:47 | 54.61461 | -5.87187 | 21 ft | 0 kts | 155° |